首页
METAR-TAF:

METAR-TAF

机场 :

Enfidha-Hammamet

哈马马特, 突尼斯

纬度: 36-04-34N, 经度: 10-26-19E, 海拔: 6米

当前天气观测

该预报发布于27分钟前的13:00 UTC
风速13节,风向南转西南
温度 27°C
湿度 37%
气压 1013 hPa
能见度10公里或以上
1500米以下无云,无积雨云

METAR: DTNH 261300Z 21013KT CAVOK 27/11 Q1013

时间: 14:27 (13:27 UTC)

预报

该预报发布于2小时和27分钟前的11:00 UTC
预报有效从26日的 12点(UTC)到 27日的 12点(UTC)
风速14节,风向南转西南
能见度10公里或以上
1500米以下无云,无积雨云
几率 40% :
短暂存在
从 27日的 03点(UTC)到 27日的 09点(UTC)
风速20节,风向北转西北,有时为30节阵风
能見度: 4000
少量云层高于2300英尺, 积雨云.
雷暴, 雨

TAF: DTNH 261100Z 2612/2712 21014KT CAVOK PROB40 TEMPO 2703/2709 33020G30KT 4000 TSRA FEW023CB

超过4000个机场的气象观测和天气预报(METAR&TAF报告)。

可查询的气象台以黄色和红色小点在地图上表示。

将鼠标移到小点上方,可查看气象台名称。

然后点击查看天气观测和预报。

如需切换地图:点击带黑十字的绿色按钮放大地图;点击带横线的绿色按钮缩小地图;或者点击绿色箭头查看邻近地区的地图。


METAR-TAF: